createdAt,value
2023-03-01T00:01:27.168Z,100.00
2023-03-01T00:03:56.391Z,100.00
2023-03-01T00:06:25.266Z,100.00
2023-03-01T00:08:53.632Z,100.00
2023-03-01T00:11:23.809Z,100.00
2023-03-01T00:13:58.590Z,100.00
2023-03-01T00:16:29.322Z,100.00
2023-03-01T00:18:58.635Z,100.00
2023-03-01T00:21:28.653Z,100.00
2023-03-01T00:23:57.849Z,100.00
2023-03-01T00:26:27.519Z,100.00
2023-03-01T00:28:59.354Z,100.00
2023-03-01T00:31:30.374Z,100.00
2023-03-01T00:34:00.281Z,100.00
2023-03-01T00:36:30.769Z,100.00
2023-03-01T00:38:59.623Z,100.00
2023-03-01T00:41:28.426Z,100.00
2023-03-01T00:43:58.787Z,100.00
2023-03-01T00:46:28.534Z,100.00
2023-03-01T00:48:57.030Z,100.00
2023-03-01T00:51:27.922Z,100.00
2023-03-01T00:53:58.061Z,100.00
2023-03-01T00:56:27.041Z,100.00
2023-03-01T00:58:55.370Z,100.00
2023-03-01T01:01:28.457Z,100.00
2023-03-01T01:03:59.170Z,100.00
2023-03-01T01:06:29.817Z,100.00
2023-03-01T01:08:59.446Z,100.00
2023-03-01T01:11:29.216Z,100.00
2023-03-01T01:13:58.447Z,100.00
2023-03-01T01:16:30.262Z,100.00
2023-03-01T01:18:59.354Z,100.00
2023-03-01T01:21:28.456Z,100.00
2023-03-01T01:23:57.285Z,100.00
2023-03-01T01:26:29.935Z,100.00
2023-03-01T01:28:58.619Z,100.00
2023-03-01T01:31:30.015Z,100.00
2023-03-01T01:33:58.773Z,100.00
2023-03-01T01:36:27.444Z,100.00
2023-03-01T01:38:56.019Z,100.00
2023-03-01T01:41:25.787Z,100.00
2023-03-01T01:44:16.474Z,100.00
2023-03-01T01:46:48.256Z,100.00
2023-03-01T01:49:25.652Z,100.00
2023-03-01T01:51:59.882Z,100.00
2023-03-01T01:54:33.588Z,100.00
2023-03-01T01:57:05.852Z,100.00
2023-03-01T01:59:35.431Z,100.00
2023-03-01T02:02:06.098Z,100.00
2023-03-01T02:04:34.606Z,100.00
2023-03-01T02:07:06.540Z,100.00
2023-03-01T02:09:35.734Z,100.00
2023-03-01T02:12:05.250Z,100.00
2023-03-01T02:14:33.546Z,100.00
2023-03-01T02:17:01.994Z,100.00
2023-03-01T02:19:42.961Z,100.00
2023-03-01T02:22:20.373Z,100.00
2023-03-01T02:24:54.292Z,100.00
2023-03-01T02:27:28.490Z,100.00
2023-03-01T02:29:58.300Z,100.00
2023-03-01T02:32:27.151Z,100.00
2023-03-01T02:34:56.034Z,100.00
2023-03-01T02:37:26.823Z,100.00
2023-03-01T02:39:59.201Z,100.00
2023-03-01T02:42:30.739Z,100.00
2023-03-01T02:45:00.580Z,100.00
2023-03-01T02:47:29.021Z,100.00
2023-03-01T02:49:57.252Z,100.00
2023-03-01T02:52:33.077Z,100.00
2023-03-01T02:55:05.375Z,100.00
2023-03-01T02:57:35.158Z,100.00
2023-03-01T03:00:09.302Z,100.00
2023-03-01T03:02:38.363Z,100.00
2023-03-01T03:05:10.483Z,100.00
2023-03-01T03:07:40.110Z,100.00
2023-03-01T03:10:12.305Z,100.00
2023-03-01T03:12:41.029Z,100.00
2023-03-01T03:15:13.844Z,100.00
2023-03-01T03:17:45.379Z,100.00
2023-03-01T03:20:20.029Z,100.00
2023-03-01T03:22:49.616Z,100.00
2023-03-01T03:25:18.294Z,100.00
2023-03-01T03:27:48.873Z,100.00
2023-03-01T03:30:22.625Z,100.00
2023-03-01T03:32:54.201Z,100.00
2023-03-01T03:35:23.554Z,100.00
2023-03-01T03:38:04.097Z,100.00
2023-03-01T03:40:34.338Z,100.00
2023-03-01T03:43:02.636Z,100.00
2023-03-01T03:45:34.465Z,100.00
2023-03-01T03:48:04.664Z,100.00
2023-03-01T03:50:33.614Z,100.00
2023-03-01T03:53:03.377Z,100.00
2023-03-01T03:55:31.903Z,100.00
2023-03-01T03:58:03.245Z,100.00
2023-03-01T04:00:32.989Z,100.00
2023-03-01T04:03:01.766Z,100.00
2023-03-01T04:05:31.715Z,100.00
2023-03-01T04:08:08.204Z,100.00
2023-03-01T04:10:39.151Z,100.00
2023-03-01T04:13:07.897Z,100.00
2023-03-01T04:15:37.882Z,100.00
2023-03-01T04:18:07.025Z,100.00
2023-03-01T04:20:37.343Z,100.00
2023-03-01T04:23:11.741Z,100.00
2023-03-01T04:25:41.109Z,100.00
2023-03-01T04:28:09.876Z,100.00
2023-03-01T04:30:40.720Z,100.00
2023-03-01T04:33:10.214Z,100.00
2023-03-01T04:35:39.277Z,100.00
2023-03-01T04:38:08.027Z,100.00
2023-03-01T04:40:36.628Z,100.00
2023-03-01T04:43:05.904Z,100.00
2023-03-01T04:45:36.513Z,100.00
2023-03-01T04:48:06.812Z,100.00
2023-03-01T04:50:37.368Z,100.00
2023-03-01T04:53:05.605Z,100.00
2023-03-01T04:55:33.959Z,100.00
2023-03-01T04:58:02.215Z,100.00
2023-03-01T05:00:30.395Z,100.00
2023-03-01T05:03:00.365Z,100.00
2023-03-01T05:05:32.636Z,100.00
2023-03-01T05:08:02.521Z,100.00
2023-03-01T05:10:32.499Z,100.00
2023-03-01T05:13:05.190Z,100.00
2023-03-01T05:15:34.005Z,100.00
2023-03-01T05:18:02.726Z,100.00
2023-03-01T05:20:32.635Z,100.00
2023-03-01T05:23:06.312Z,100.00
2023-03-01T05:25:36.065Z,100.00
2023-03-01T05:28:05.622Z,100.00
2023-03-01T05:30:34.877Z,100.00
2023-03-01T05:33:03.477Z,100.00
2023-03-01T05:35:35.013Z,100.00
2023-03-01T05:38:06.089Z,100.00
2023-03-01T05:40:36.059Z,100.00
2023-03-01T05:43:06.283Z,100.00
2023-03-01T05:45:34.793Z,100.00
2023-03-01T05:48:03.053Z,100.00
2023-03-01T05:50:36.269Z,100.00
2023-03-01T05:53:06.666Z,100.00
2023-03-01T05:55:35.176Z,100.00
2023-03-01T05:58:04.636Z,100.00
2023-03-01T06:00:33.530Z,100.00
2023-03-01T06:03:02.221Z,100.00
2023-03-01T06:05:32.432Z,100.00
2023-03-01T06:08:02.050Z,100.00
2023-03-01T06:10:30.946Z,100.00
2023-03-01T06:12:59.323Z,100.00
2023-03-01T06:15:28.116Z,100.00
2023-03-01T06:18:00.324Z,100.00
2023-03-01T06:20:30.391Z,100.00
2023-03-01T06:23:02.175Z,100.00
2023-03-01T06:25:30.581Z,100.00
2023-03-01T06:27:58.935Z,100.00
2023-03-01T06:30:28.430Z,100.00
2023-03-01T06:33:01.938Z,100.00
2023-03-01T06:35:31.774Z,100.00
2023-03-01T06:38:03.401Z,100.00
2023-03-01T06:40:33.226Z,100.00
2023-03-01T06:43:02.010Z,100.00
2023-03-01T06:45:30.487Z,100.00
2023-03-01T06:48:06.469Z,100.00
2023-03-01T06:50:35.276Z,100.00
2023-03-01T06:53:05.105Z,100.00
2023-03-01T06:55:33.972Z,100.00
2023-03-01T06:58:03.354Z,100.00
2023-03-01T07:00:32.419Z,100.00
2023-03-01T07:03:03.380Z,100.00
2023-03-01T07:05:32.548Z,100.00
2023-03-01T07:08:01.060Z,100.00
2023-03-01T07:10:31.054Z,100.00
2023-03-01T07:13:00.251Z,100.00
2023-03-01T07:15:29.610Z,100.00
2023-03-01T07:17:58.648Z,100.00
2023-03-01T07:20:27.138Z,100.00
2023-03-01T07:22:55.930Z,100.00
2023-03-01T07:25:24.512Z,100.00
2023-03-01T07:27:54.899Z,100.00
2023-03-01T07:30:26.821Z,100.00
2023-03-01T07:32:55.905Z,100.00
2023-03-01T07:35:24.938Z,100.00
2023-03-01T07:37:53.252Z,100.00
2023-03-01T07:40:22.052Z,100.00
2023-03-01T07:42:50.349Z,100.00
2023-03-01T07:45:20.402Z,100.00
2023-03-01T07:47:48.736Z,100.00
2023-03-01T07:50:17.364Z,100.00
2023-03-01T07:52:47.282Z,100.00
2023-03-01T07:55:16.013Z,100.00
2023-03-01T07:57:44.511Z,100.00
2023-03-01T08:00:14.389Z,100.00
2023-03-01T08:02:44.521Z,100.00
2023-03-01T08:05:15.364Z,100.00
2023-03-01T08:07:43.770Z,100.00
2023-03-01T08:10:13.411Z,100.00
2023-03-01T08:12:41.766Z,100.00
2023-03-01T08:15:11.635Z,100.00
2023-03-01T08:17:40.095Z,100.00
2023-03-01T08:20:13.589Z,100.00
2023-03-01T08:22:41.953Z,100.00
2023-03-01T08:25:10.896Z,100.00
2023-03-01T08:27:39.377Z,100.00
2023-03-01T08:30:09.168Z,100.00
2023-03-01T08:32:39.563Z,100.00
2023-03-01T08:35:10.452Z,100.00
2023-03-01T08:37:39.185Z,100.00
2023-03-01T08:40:11.020Z,100.00
2023-03-01T08:42:40.637Z,100.00
2023-03-01T08:45:10.231Z,100.00
2023-03-01T08:47:38.796Z,100.00
2023-03-01T08:50:10.271Z,100.00
2023-03-01T08:52:38.458Z,100.00
2023-03-01T08:55:08.129Z,100.00
2023-03-01T08:57:36.470Z,100.00
2023-03-01T09:00:10.619Z,100.00
2023-03-01T09:02:39.834Z,100.00
2023-03-01T09:05:10.867Z,100.00
2023-03-01T09:07:38.931Z,100.00
2023-03-01T09:10:08.423Z,100.00
2023-03-01T09:12:36.707Z,100.00
2023-03-01T09:15:05.735Z,100.00
2023-03-01T09:17:34.001Z,100.00
2023-03-01T09:20:02.309Z,100.00
2023-03-01T09:22:32.179Z,100.00
2023-03-01T09:25:00.559Z,100.00
2023-03-01T09:27:47.481Z,100.00
2023-03-01T09:30:34.883Z,100.00
2023-03-01T09:33:04.296Z,100.00
2023-03-01T09:35:32.825Z,100.00
2023-03-01T09:38:02.805Z,100.00
2023-03-01T09:40:31.214Z,100.00
2023-03-01T09:43:08.466Z,100.00
2023-03-01T09:45:39.532Z,100.00
2023-03-01T09:48:14.888Z,100.00
2023-03-01T09:50:47.749Z,100.00
2023-03-01T09:53:19.126Z,100.00
2023-03-01T09:55:51.061Z,100.00
2023-03-01T09:58:38.254Z,100.00
2023-03-01T10:01:16.366Z,100.00
2023-03-01T10:03:47.647Z,100.00
2023-03-01T10:06:32.237Z,100.00
2023-03-01T10:09:08.456Z,100.00
2023-03-01T10:11:41.560Z,100.00
2023-03-01T10:14:22.410Z,100.00
2023-03-01T10:16:55.094Z,100.00
2023-03-01T10:19:26.659Z,100.00
2023-03-01T10:21:56.676Z,100.00
2023-03-01T10:24:26.774Z,100.00
2023-03-01T10:26:58.390Z,100.00
2023-03-01T10:29:33.319Z,100.00
2023-03-01T10:32:01.809Z,100.00
2023-03-01T10:34:32.180Z,100.00
2023-03-01T10:37:06.284Z,100.00
2023-03-01T10:39:36.045Z,100.00
2023-03-01T10:42:06.159Z,100.00
2023-03-01T10:44:47.413Z,100.00
2023-03-01T10:47:21.273Z,100.00
2023-03-01T10:49:56.037Z,100.00
2023-03-01T10:52:27.283Z,100.00
2023-03-01T10:55:00.111Z,100.00
2023-03-01T10:57:34.787Z,100.00
2023-03-01T11:00:20.004Z,100.00
2023-03-01T11:02:51.334Z,100.00
2023-03-01T11:05:25.021Z,100.00
2023-03-01T11:07:56.263Z,100.00
2023-03-01T11:10:27.604Z,100.00
2023-03-01T11:13:08.221Z,100.00
2023-03-01T11:15:37.101Z,100.00
2023-03-01T11:18:13.787Z,100.00
2023-03-01T11:20:44.164Z,100.00
2023-03-01T11:23:14.510Z,100.00
2023-03-01T11:25:45.646Z,100.00
2023-03-01T11:28:19.940Z,100.00
2023-03-01T11:31:06.875Z,98.03
2023-03-01T11:33:41.965Z,100.00
2023-03-01T11:36:16.365Z,95.50
2023-03-01T11:38:45.719Z,96.91
2023-03-01T11:41:19.456Z,96.76
2023-03-01T11:43:53.977Z,91.71
2023-03-01T11:46:42.379Z,94.92
2023-03-01T11:49:35.704Z,93.69
2023-03-01T11:52:11.781Z,92.43
2023-03-01T11:54:56.520Z,97.15
2023-03-01T11:57:44.484Z,89.70
2023-03-01T12:00:34.324Z,92.59
2023-03-01T12:03:21.874Z,92.66
2023-03-01T12:06:25.339Z,93.08
2023-03-01T12:09:04.266Z,89.01
2023-03-01T12:11:43.972Z,91.23
2023-03-01T12:14:41.994Z,85.11
2023-03-01T12:17:39.878Z,89.24
2023-03-01T12:20:24.180Z,91.19
2023-03-01T12:23:19.450Z,91.82
2023-03-01T12:25:55.910Z,89.21
2023-03-01T12:28:38.722Z,93.24
2023-03-01T12:31:18.938Z,94.25
2023-03-01T12:33:58.326Z,98.26
2023-03-01T12:36:42.155Z,100.00
2023-03-01T12:39:22.723Z,95.50
2023-03-01T12:41:57.362Z,100.00
2023-03-01T12:44:45.017Z,96.80
2023-03-01T12:47:39.411Z,100.00
2023-03-01T12:50:13.758Z,96.09
2023-03-01T12:52:47.555Z,93.47
2023-03-01T12:55:27.801Z,89.35
2023-03-01T12:58:02.648Z,90.60
2023-03-01T13:00:37.012Z,93.84
2023-03-01T13:03:16.732Z,86.45
2023-03-01T13:05:57.540Z,88.76
2023-03-01T13:08:32.047Z,88.36
2023-03-01T13:11:04.029Z,91.14
2023-03-01T13:13:32.868Z,86.18
2023-03-01T13:16:23.713Z,87.34
2023-03-01T13:19:08.897Z,87.34
2023-03-01T13:21:38.863Z,92.63
2023-03-01T13:24:24.282Z,85.40
2023-03-01T13:27:26.399Z,87.38
2023-03-01T13:30:00.769Z,87.33
2023-03-01T13:32:43.088Z,82.72
2023-03-01T13:35:47.193Z,86.59
2023-03-01T13:38:42.559Z,78.87
2023-03-01T13:41:11.193Z,78.68
2023-03-01T13:43:41.097Z,83.09
2023-03-01T13:46:13.832Z,78.93
2023-03-01T13:48:42.781Z,82.11
2023-03-01T13:51:14.541Z,78.26
2023-03-01T13:53:45.952Z,81.01
2023-03-01T13:56:17.242Z,77.85
2023-03-01T13:58:54.567Z,79.51
2023-03-01T14:01:25.706Z,75.56
2023-03-01T14:03:54.882Z,75.21
2023-03-01T14:06:26.343Z,74.04
2023-03-01T14:09:03.940Z,72.93
2023-03-01T14:12:19.373Z,72.58
2023-03-01T14:14:54.404Z,75.46
2023-03-01T14:17:47.246Z,74.10
2023-03-01T14:20:20.446Z,72.24
2023-03-01T14:22:52.027Z,70.85
2023-03-01T14:25:24.934Z,70.70
2023-03-01T14:27:57.022Z,71.55
2023-03-01T14:30:27.826Z,67.18
2023-03-01T14:32:57.747Z,70.06
2023-03-01T14:35:27.775Z,70.87
2023-03-01T14:37:57.665Z,75.51
2023-03-01T14:40:29.650Z,72.54
2023-03-01T14:43:00.147Z,71.75
2023-03-01T14:45:30.177Z,68.10
2023-03-01T14:48:01.631Z,64.73
2023-03-01T14:50:32.395Z,68.45
2023-03-01T14:53:07.518Z,67.26
2023-03-01T14:55:41.937Z,66.43
2023-03-01T14:58:15.121Z,68.06
2023-03-01T15:00:49.716Z,70.66
2023-03-01T15:03:27.170Z,71.80
2023-03-01T15:05:56.271Z,72.28
2023-03-01T15:08:34.345Z,73.13
2023-03-01T15:11:08.005Z,75.49
2023-03-01T15:13:37.835Z,76.23
2023-03-01T15:16:11.785Z,71.85
2023-03-01T15:18:40.343Z,64.68
2023-03-01T15:23:56.756Z,67.87
2023-03-01T15:26:28.502Z,67.49
2023-03-01T15:29:00.619Z,66.71
2023-03-01T15:31:33.332Z,65.51
2023-03-01T15:34:13.751Z,64.05
2023-03-01T15:36:51.033Z,63.77
2023-03-01T15:39:38.357Z,67.08
2023-03-01T15:42:09.391Z,66.09
2023-03-01T15:44:43.825Z,66.70
2023-03-01T15:47:29.822Z,62.40
2023-03-01T15:50:02.839Z,60.75
2023-03-01T15:52:37.796Z,64.18
2023-03-01T15:55:18.358Z,63.18
2023-03-01T15:57:47.203Z,63.90
2023-03-01T16:00:16.793Z,65.05
2023-03-01T16:02:47.722Z,68.46
2023-03-01T16:05:20.659Z,65.42
2023-03-01T16:07:49.399Z,67.08
2023-03-01T16:10:20.179Z,66.89
2023-03-01T16:12:50.832Z,71.27
2023-03-01T16:15:21.257Z,70.60
2023-03-01T16:17:54.487Z,75.34
2023-03-01T16:20:29.168Z,82.04
2023-03-01T16:23:01.493Z,83.47
2023-03-01T16:25:33.521Z,81.74
2023-03-01T16:28:06.188Z,82.60
2023-03-01T16:30:36.211Z,83.86
2023-03-01T16:33:28.373Z,95.58
2023-03-01T16:35:57.985Z,94.74
2023-03-01T16:38:26.485Z,93.21
2023-03-01T16:40:56.956Z,96.08
2023-03-01T16:43:28.894Z,100.00
2023-03-01T16:46:00.215Z,100.00
2023-03-01T16:48:28.509Z,100.00
2023-03-01T16:51:01.715Z,100.00
2023-03-01T16:53:32.644Z,100.00
2023-03-01T16:56:02.703Z,100.00
2023-03-01T16:58:31.483Z,100.00
2023-03-01T17:01:08.969Z,100.00
2023-03-01T17:03:37.565Z,100.00
2023-03-01T17:06:10.736Z,100.00
2023-03-01T17:08:43.104Z,100.00
2023-03-01T17:11:15.724Z,100.00
2023-03-01T17:13:44.458Z,100.00
2023-03-01T17:16:17.716Z,100.00
2023-03-01T17:18:49.448Z,100.00
2023-03-01T17:21:20.257Z,100.00
2023-03-01T17:23:50.525Z,100.00
2023-03-01T17:26:21.323Z,100.00
2023-03-01T17:28:51.935Z,100.00
2023-03-01T17:31:21.035Z,100.00
2023-03-01T17:33:50.219Z,100.00
2023-03-01T17:36:18.639Z,100.00
2023-03-01T17:38:47.599Z,100.00
2023-03-01T17:41:18.692Z,100.00
2023-03-01T17:43:48.829Z,100.00
2023-03-01T17:46:17.534Z,100.00
2023-03-01T17:48:45.813Z,100.00
2023-03-01T17:51:14.208Z,100.00
2023-03-01T17:53:43.101Z,100.00
2023-03-01T17:56:11.484Z,100.00
2023-03-01T17:58:40.408Z,100.00
2023-03-01T18:01:15.960Z,100.00
2023-03-01T18:03:47.493Z,100.00
2023-03-01T18:06:17.490Z,100.00
2023-03-01T18:08:46.730Z,100.00
2023-03-01T18:11:15.873Z,100.00
2023-03-01T18:13:44.239Z,100.00
2023-03-01T18:16:15.835Z,100.00
2023-03-01T18:18:45.155Z,100.00
2023-03-01T18:21:13.866Z,100.00
2023-03-01T18:23:42.848Z,100.00
2023-03-01T18:26:15.800Z,100.00
2023-03-01T18:28:47.750Z,100.00
2023-03-01T18:31:19.420Z,100.00
2023-03-01T18:33:48.559Z,100.00
2023-03-01T18:36:21.147Z,100.00
2023-03-01T18:38:49.894Z,100.00
2023-03-01T18:41:18.268Z,100.00
2023-03-01T18:43:48.197Z,100.00
2023-03-01T18:46:39.096Z,100.00
2023-03-01T18:49:26.811Z,100.00
2023-03-01T18:52:14.028Z,100.00
2023-03-01T18:55:04.848Z,100.00
2023-03-01T18:57:51.855Z,100.00
2023-03-01T19:00:39.025Z,100.00
2023-03-01T19:03:28.922Z,100.00
2023-03-01T19:06:16.792Z,100.00
2023-03-01T19:09:03.794Z,100.00
2023-03-01T19:11:50.604Z,100.00
2023-03-01T19:14:37.873Z,100.00
2023-03-01T19:17:31.356Z,100.00
2023-03-01T19:20:19.973Z,100.00
2023-03-01T19:23:07.137Z,100.00
2023-03-01T19:25:59.505Z,100.00
2023-03-01T19:28:49.105Z,100.00
2023-03-01T19:31:54.639Z,100.00
2023-03-01T19:34:44.473Z,100.00
2023-03-01T19:37:34.951Z,100.00
2023-03-01T19:40:22.678Z,100.00
2023-03-01T19:43:11.660Z,100.00
2023-03-01T19:45:58.798Z,100.00
2023-03-01T19:48:45.956Z,100.00
2023-03-01T19:51:36.221Z,100.00
2023-03-01T19:54:25.328Z,100.00
2023-03-01T19:57:15.699Z,100.00
2023-03-01T20:00:02.540Z,100.00
2023-03-01T20:02:50.075Z,100.00
2023-03-01T20:05:38.285Z,100.00
2023-03-01T20:08:26.514Z,100.00
2023-03-01T20:11:16.255Z,100.00
2023-03-01T20:14:06.816Z,100.00
2023-03-01T20:16:54.121Z,100.00
2023-03-01T20:19:40.993Z,100.00
2023-03-01T20:22:28.044Z,100.00
2023-03-01T20:25:15.173Z,100.00
2023-03-01T20:28:04.252Z,100.00
2023-03-01T20:30:51.454Z,100.00
2023-03-01T20:33:38.972Z,100.00
2023-03-01T20:36:26.424Z,100.00
2023-03-01T20:39:13.438Z,100.00
2023-03-01T20:42:00.712Z,100.00
2023-03-01T20:44:49.230Z,100.00
2023-03-01T20:47:20.493Z,100.00
2023-03-01T20:49:51.290Z,100.00
2023-03-01T20:52:19.708Z,100.00
2023-03-01T20:54:48.722Z,100.00
2023-03-01T20:57:17.262Z,100.00
2023-03-01T20:59:45.762Z,100.00
2023-03-01T21:02:28.795Z,100.00
2023-03-01T21:04:57.392Z,100.00
2023-03-01T21:07:25.944Z,100.00
2023-03-01T21:09:54.444Z,100.00
2023-03-01T21:12:22.922Z,100.00
2023-03-01T21:14:51.423Z,100.00
2023-03-01T21:17:21.386Z,100.00
2023-03-01T21:19:50.789Z,100.00
2023-03-01T21:22:20.825Z,100.00
2023-03-01T21:24:50.207Z,100.00
2023-03-01T21:27:20.100Z,100.00
2023-03-01T21:29:48.509Z,100.00
2023-03-01T21:32:18.713Z,100.00
2023-03-01T21:34:48.744Z,100.00
2023-03-01T21:37:17.816Z,100.00
2023-03-01T21:39:46.160Z,100.00
2023-03-01T21:42:14.804Z,100.00
2023-03-01T21:44:43.183Z,100.00
2023-03-01T21:47:11.770Z,100.00
2023-03-01T21:49:40.260Z,100.00
2023-03-01T21:52:17.062Z,100.00
2023-03-01T21:54:46.010Z,100.00
2023-03-01T21:57:14.479Z,100.00
2023-03-01T21:59:42.747Z,100.00
2023-03-01T22:02:12.746Z,100.00
2023-03-01T22:04:41.192Z,100.00
2023-03-01T22:07:10.918Z,100.00
2023-03-01T22:09:40.019Z,100.00
2023-03-01T22:12:08.954Z,100.00
2023-03-01T22:14:37.384Z,100.00
2023-03-01T22:17:05.919Z,100.00
2023-03-01T22:19:34.353Z,100.00
2023-03-01T22:22:02.652Z,100.00
2023-03-01T22:24:32.420Z,100.00
2023-03-01T22:27:00.766Z,100.00
2023-03-01T22:29:30.739Z,100.00
2023-03-01T22:31:59.489Z,100.00
2023-03-01T22:34:28.427Z,100.00
2023-03-01T22:36:56.821Z,100.00
2023-03-01T22:39:25.232Z,100.00
2023-03-01T22:41:58.307Z,100.00
2023-03-01T22:44:45.675Z,100.00
2023-03-01T22:47:33.385Z,100.00
2023-03-01T22:50:20.424Z,100.00
2023-03-01T22:53:07.199Z,100.00
2023-03-01T22:55:53.930Z,100.00
2023-03-01T22:58:23.947Z,100.00
2023-03-01T23:00:52.325Z,100.00
2023-03-01T23:03:20.695Z,100.00
2023-03-01T23:05:49.200Z,100.00
2023-03-01T23:08:17.568Z,100.00
2023-03-01T23:10:46.050Z,100.00
2023-03-01T23:13:14.652Z,100.00
2023-03-01T23:15:46.043Z,100.00
2023-03-01T23:18:14.295Z,100.00
2023-03-01T23:20:42.611Z,100.00
2023-03-01T23:23:10.855Z,100.00
2023-03-01T23:25:39.596Z,100.00
2023-03-01T23:28:08.352Z,100.00
2023-03-01T23:30:37.188Z,100.00
2023-03-01T23:37:35.141Z,100.00
2023-03-01T23:40:28.127Z,100.00
2023-03-01T23:43:16.935Z,100.00
2023-03-01T23:45:59.950Z,100.00
2023-03-01T23:48:30.819Z,100.00
2023-03-01T23:51:06.242Z,100.00
2023-03-01T23:53:37.475Z,100.00
2023-03-01T23:56:06.968Z,100.00
2023-03-01T23:58:35.356Z,100.00
